sensor_id;sensor_type;location;lat;lon;timestamp;P1;durP1;ratioP1;P2;durP2;ratioP2
54743;SDS011;40639;53.170;6.728;2023-05-23T00:00:20;26.70;;;13.63;;
54743;SDS011;40639;53.170;6.728;2023-05-23T00:02:46;33.85;;;15.55;;
54743;SDS011;40639;53.170;6.728;2023-05-23T00:05:13;31.10;;;14.43;;
54743;SDS011;40639;53.170;6.728;2023-05-23T00:07:42;30.23;;;14.98;;
54743;SDS011;40639;53.170;6.728;2023-05-23T00:10:08;30.58;;;15.30;;
54743;SDS011;40639;53.170;6.728;2023-05-23T00:12:35;29.75;;;14.77;;
54743;SDS011;40639;53.170;6.728;2023-05-23T00:15:04;28.67;;;14.40;;
54743;SDS011;40639;53.170;6.728;2023-05-23T00:17:34;28.77;;;14.65;;
54743;SDS011;40639;53.170;6.728;2023-05-23T00:20:04;26.23;;;14.15;;
54743;SDS011;40639;53.170;6.728;2023-05-23T00:22:30;25.98;;;14.27;;
54743;SDS011;40639;53.170;6.728;2023-05-23T00:24:56;28.40;;;13.70;;
54743;SDS011;40639;53.170;6.728;2023-05-23T00:27:26;28.75;;;14.35;;
54743;SDS011;40639;53.170;6.728;2023-05-23T00:29:52;27.23;;;13.32;;
54743;SDS011;40639;53.170;6.728;2023-05-23T00:32:18;30.92;;;13.38;;
54743;SDS011;40639;53.170;6.728;2023-05-23T00:34:44;26.88;;;13.25;;
54743;SDS011;40639;53.170;6.728;2023-05-23T00:37:11;25.75;;;13.60;;
54743;SDS011;40639;53.170;6.728;2023-05-23T00:39:37;25.17;;;12.60;;
54743;SDS011;40639;53.170;6.728;2023-05-23T00:42:03;25.38;;;12.10;;
54743;SDS011;40639;53.170;6.728;2023-05-23T00:44:30;27.00;;;12.82;;
54743;SDS011;40639;53.170;6.728;2023-05-23T00:46:56;27.50;;;12.68;;
54743;SDS011;40639;53.170;6.728;2023-05-23T00:49:23;30.40;;;13.50;;
54743;SDS011;40639;53.170;6.728;2023-05-23T00:51:52;27.27;;;12.77;;
54743;SDS011;40639;53.170;6.728;2023-05-23T00:54:20;28.00;;;13.93;;
54743;SDS011;40639;53.170;6.728;2023-05-23T00:56:48;25.30;;;12.50;;
54743;SDS011;40639;53.170;6.728;2023-05-23T00:59:14;24.73;;;12.55;;
54743;SDS011;40639;53.170;6.728;2023-05-23T01:01:41;23.27;;;13.10;;
54743;SDS011;40639;53.170;6.728;2023-05-23T01:04:10;27.73;;;14.48;;
54743;SDS011;40639;53.170;6.728;2023-05-23T01:06:37;21.10;;;12.52;;
54743;SDS011;40639;53.170;6.728;2023-05-23T01:09:04;26.90;;;14.43;;
54743;SDS011;40639;53.170;6.728;2023-05-23T01:11:35;22.85;;;14.55;;
54743;SDS011;40639;53.170;6.728;2023-05-23T01:14:04;24.98;;;13.85;;
54743;SDS011;40639;53.170;6.728;2023-05-23T01:16:38;20.52;;;13.02;;
54743;SDS011;40639;53.170;6.728;2023-05-23T01:21:52;22.27;;;12.50;;
54743;SDS011;40639;53.170;6.728;2023-05-23T01:29:28;21.05;;;10.90;;
54743;SDS011;40639;53.170;6.728;2023-05-23T01:31:57;14.85;;;9.60;;
54743;SDS011;40639;53.170;6.728;2023-05-23T01:34:24;16.77;;;10.07;;
54743;SDS011;40639;53.170;6.728;2023-05-23T01:36:53;11.95;;;8.05;;
54743;SDS011;40639;53.170;6.728;2023-05-23T01:39:22;16.25;;;8.02;;
54743;SDS011;40639;53.170;6.728;2023-05-23T01:41:48;14.93;;;7.45;;
54743;SDS011;40639;53.170;6.728;2023-05-23T01:44:15;11.15;;;6.10;;
54743;SDS011;40639;53.170;6.728;2023-05-23T01:46:41;12.25;;;6.55;;
54743;SDS011;40639;53.170;6.728;2023-05-23T01:49:08;12.88;;;6.78;;
54743;SDS011;40639;53.170;6.728;2023-05-23T01:51:36;14.02;;;7.28;;
54743;SDS011;40639;53.170;6.728;2023-05-23T01:54:03;15.93;;;7.57;;
54743;SDS011;40639;53.170;6.728;2023-05-23T01:56:29;19.23;;;7.93;;
54743;SDS011;40639;53.170;6.728;2023-05-23T01:58:56;18.38;;;8.30;;
54743;SDS011;40639;53.170;6.728;2023-05-23T02:01:22;16.92;;;7.68;;
54743;SDS011;40639;53.170;6.728;2023-05-23T02:03:48;24.27;;;8.27;;
54743;SDS011;40639;53.170;6.728;2023-05-23T02:06:14;17.58;;;7.47;;
54743;SDS011;40639;53.170;6.728;2023-05-23T02:08:40;19.00;;;7.07;;
54743;SDS011;40639;53.170;6.728;2023-05-23T02:11:07;18.40;;;8.13;;
54743;SDS011;40639;53.170;6.728;2023-05-23T02:13:34;27.85;;;9.30;;
54743;SDS011;40639;53.170;6.728;2023-05-23T02:16:01;24.05;;;8.43;;
54743;SDS011;40639;53.170;6.728;2023-05-23T02:18:28;24.50;;;8.75;;
54743;SDS011;40639;53.170;6.728;2023-05-23T02:20:54;24.40;;;8.80;;
54743;SDS011;40639;53.170;6.728;2023-05-23T02:23:21;25.52;;;9.07;;
54743;SDS011;40639;53.170;6.728;2023-05-23T02:25:47;20.50;;;7.88;;
54743;SDS011;40639;53.170;6.728;2023-05-23T02:28:13;26.77;;;8.38;;
54743;SDS011;40639;53.170;6.728;2023-05-23T02:30:39;19.30;;;8.23;;
54743;SDS011;40639;53.170;6.728;2023-05-23T02:33:06;15.75;;;8.02;;
54743;SDS011;40639;53.170;6.728;2023-05-23T02:35:32;18.45;;;7.35;;
54743;SDS011;40639;53.170;6.728;2023-05-23T02:37:59;17.35;;;7.55;;
54743;SDS011;40639;53.170;6.728;2023-05-23T02:40:25;21.50;;;7.20;;
54743;SDS011;40639;53.170;6.728;2023-05-23T02:42:51;17.00;;;6.70;;
54743;SDS011;40639;53.170;6.728;2023-05-23T02:45:17;15.13;;;6.00;;
54743;SDS011;40639;53.170;6.728;2023-05-23T02:47:43;12.52;;;5.10;;
54743;SDS011;40639;53.170;6.728;2023-05-23T02:50:09;12.80;;;4.72;;
54743;SDS011;40639;53.170;6.728;2023-05-23T02:52:36;10.82;;;5.28;;
54743;SDS011;40639;53.170;6.728;2023-05-23T02:55:02;11.20;;;5.18;;
54743;SDS011;40639;53.170;6.728;2023-05-23T02:57:28;11.10;;;4.78;;
54743;SDS011;40639;53.170;6.728;2023-05-23T02:59:54;10.38;;;4.78;;
54743;SDS011;40639;53.170;6.728;2023-05-23T03:02:20;9.65;;;4.10;;
54743;SDS011;40639;53.170;6.728;2023-05-23T03:04:47;12.75;;;4.85;;
54743;SDS011;40639;53.170;6.728;2023-05-23T03:09:58;18.77;;;6.65;;
54743;SDS011;40639;53.170;6.728;2023-05-23T03:12:26;16.90;;;6.43;;
54743;SDS011;40639;53.170;6.728;2023-05-23T03:14:53;19.52;;;7.40;;
54743;SDS011;40639;53.170;6.728;2023-05-23T03:17:19;20.52;;;7.07;;
54743;SDS011;40639;53.170;6.728;2023-05-23T03:19:45;23.50;;;7.65;;
54743;SDS011;40639;53.170;6.728;2023-05-23T03:22:12;23.20;;;7.65;;
54743;SDS011;40639;53.170;6.728;2023-05-23T03:24:38;20.33;;;6.97;;
54743;SDS011;40639;53.170;6.728;2023-05-23T03:27:04;15.77;;;6.65;;
54743;SDS011;40639;53.170;6.728;2023-05-23T03:29:30;18.67;;;7.28;;
54743;SDS011;40639;53.170;6.728;2023-05-23T03:31:56;17.63;;;6.53;;
54743;SDS011;40639;53.170;6.728;2023-05-23T03:34:23;20.10;;;6.47;;
54743;SDS011;40639;53.170;6.728;2023-05-23T03:36:50;15.15;;;6.85;;
54743;SDS011;40639;53.170;6.728;2023-05-23T03:39:16;16.38;;;6.18;;
54743;SDS011;40639;53.170;6.728;2023-05-23T03:41:43;19.10;;;6.50;;
54743;SDS011;40639;53.170;6.728;2023-05-23T03:44:09;14.15;;;6.70;;
54743;SDS011;40639;53.170;6.728;2023-05-23T03:46:35;22.88;;;6.80;;
54743;SDS011;40639;53.170;6.728;2023-05-23T03:49:01;18.48;;;6.35;;
54743;SDS011;40639;53.170;6.728;2023-05-23T03:51:27;17.08;;;6.40;;
54743;SDS011;40639;53.170;6.728;2023-05-23T03:53:53;17.00;;;5.80;;
54743;SDS011;40639;53.170;6.728;2023-05-23T03:56:20;16.08;;;5.60;;
54743;SDS011;40639;53.170;6.728;2023-05-23T03:58:46;12.52;;;5.35;;
54743;SDS011;40639;53.170;6.728;2023-05-23T04:01:12;14.93;;;5.60;;
54743;SDS011;40639;53.170;6.728;2023-05-23T04:03:39;13.82;;;5.60;;
54743;SDS011;40639;53.170;6.728;2023-05-23T04:06:05;11.13;;;5.50;;
54743;SDS011;40639;53.170;6.728;2023-05-23T04:08:31;12.10;;;5.57;;
54743;SDS011;40639;53.170;6.728;2023-05-23T04:10:58;17.45;;;5.80;;
54743;SDS011;40639;53.170;6.728;2023-05-23T04:13:25;20.33;;;6.15;;
54743;SDS011;40639;53.170;6.728;2023-05-23T04:15:52;17.15;;;5.53;;
54743;SDS011;40639;53.170;6.728;2023-05-23T04:18:20;13.30;;;5.07;;
54743;SDS011;40639;53.170;6.728;2023-05-23T04:20:47;13.93;;;4.82;;
54743;SDS011;40639;53.170;6.728;2023-05-23T04:23:13;15.77;;;5.53;;
54743;SDS011;40639;53.170;6.728;2023-05-23T04:25:40;21.35;;;6.68;;
54743;SDS011;40639;53.170;6.728;2023-05-23T04:28:06;14.57;;;4.78;;
54743;SDS011;40639;53.170;6.728;2023-05-23T04:30:34;13.80;;;4.53;;
54743;SDS011;40639;53.170;6.728;2023-05-23T04:33:00;16.42;;;4.78;;
54743;SDS011;40639;53.170;6.728;2023-05-23T04:35:26;12.20;;;4.13;;
54743;SDS011;40639;53.170;6.728;2023-05-23T04:37:53;16.88;;;4.45;;
54743;SDS011;40639;53.170;6.728;2023-05-23T04:40:22;10.98;;;4.00;;
54743;SDS011;40639;53.170;6.728;2023-05-23T04:42:48;10.70;;;4.70;;
54743;SDS011;40639;53.170;6.728;2023-05-23T04:45:16;13.13;;;3.60;;
54743;SDS011;40639;53.170;6.728;2023-05-23T04:47:43;15.20;;;4.43;;
54743;SDS011;40639;53.170;6.728;2023-05-23T04:50:10;13.80;;;4.32;;
54743;SDS011;40639;53.170;6.728;2023-05-23T04:52:36;9.88;;;3.60;;
54743;SDS011;40639;53.170;6.728;2023-05-23T04:55:02;9.38;;;3.80;;
54743;SDS011;40639;53.170;6.728;2023-05-23T04:57:28;14.60;;;4.28;;
54743;SDS011;40639;53.170;6.728;2023-05-23T04:59:55;10.57;;;3.45;;
54743;SDS011;40639;53.170;6.728;2023-05-23T05:02:21;13.73;;;4.28;;
54743;SDS011;40639;53.170;6.728;2023-05-23T05:04:47;14.73;;;4.63;;
54743;SDS011;40639;53.170;6.728;2023-05-23T05:07:13;13.25;;;5.78;;
54743;SDS011;40639;53.170;6.728;2023-05-23T05:09:40;13.48;;;5.53;;
54743;SDS011;40639;53.170;6.728;2023-05-23T05:12:06;13.85;;;5.72;;
54743;SDS011;40639;53.170;6.728;2023-05-23T05:14:33;13.55;;;6.18;;
54743;SDS011;40639;53.170;6.728;2023-05-23T05:16:59;14.77;;;6.50;;
54743;SDS011;40639;53.170;6.728;2023-05-23T05:19:26;17.70;;;6.75;;
54743;SDS011;40639;53.170;6.728;2023-05-23T05:21:52;17.92;;;7.07;;
54743;SDS011;40639;53.170;6.728;2023-05-23T05:24:18;17.90;;;6.80;;
54743;SDS011;40639;53.170;6.728;2023-05-23T05:26:47;18.15;;;5.78;;
54743;SDS011;40639;53.170;6.728;2023-05-23T05:29:13;19.80;;;6.45;;
54743;SDS011;40639;53.170;6.728;2023-05-23T05:31:40;16.35;;;7.32;;
54743;SDS011;40639;53.170;6.728;2023-05-23T05:34:09;13.45;;;5.90;;
54743;SDS011;40639;53.170;6.728;2023-05-23T05:36:35;16.38;;;6.40;;
54743;SDS011;40639;53.170;6.728;2023-05-23T05:39:04;13.82;;;6.03;;
54743;SDS011;40639;53.170;6.728;2023-05-23T05:41:30;16.80;;;6.03;;
54743;SDS011;40639;53.170;6.728;2023-05-23T05:43:57;10.45;;;5.30;;
54743;SDS011;40639;53.170;6.728;2023-05-23T05:46:23;14.40;;;5.43;;
54743;SDS011;40639;53.170;6.728;2023-05-23T05:48:49;11.60;;;5.18;;
54743;SDS011;40639;53.170;6.728;2023-05-23T05:51:15;12.80;;;5.40;;
54743;SDS011;40639;53.170;6.728;2023-05-23T05:53:41;11.00;;;5.28;;
54743;SDS011;40639;53.170;6.728;2023-05-23T05:56:07;13.25;;;5.15;;
54743;SDS011;40639;53.170;6.728;2023-05-23T05:58:34;14.27;;;6.00;;
54743;SDS011;40639;53.170;6.728;2023-05-23T06:01:00;12.50;;;4.93;;
54743;SDS011;40639;53.170;6.728;2023-05-23T06:03:26;11.82;;;5.68;;
54743;SDS011;40639;53.170;6.728;2023-05-23T06:05:55;17.95;;;6.00;;
54743;SDS011;40639;53.170;6.728;2023-05-23T06:08:21;15.88;;;5.00;;
54743;SDS011;40639;53.170;6.728;2023-05-23T06:10:47;9.15;;;3.95;;
54743;SDS011;40639;53.170;6.728;2023-05-23T06:13:13;11.55;;;3.90;;
54743;SDS011;40639;53.170;6.728;2023-05-23T06:15:40;10.68;;;3.65;;
54743;SDS011;40639;53.170;6.728;2023-05-23T06:18:06;11.52;;;3.95;;
54743;SDS011;40639;53.170;6.728;2023-05-23T06:20:32;9.60;;;3.47;;
54743;SDS011;40639;53.170;6.728;2023-05-23T06:22:58;9.75;;;3.08;;
54743;SDS011;40639;53.170;6.728;2023-05-23T06:25:24;11.10;;;3.15;;
54743;SDS011;40639;53.170;6.728;2023-05-23T06:27:50;11.05;;;3.55;;
54743;SDS011;40639;53.170;6.728;2023-05-23T06:30:16;11.10;;;4.03;;
54743;SDS011;40639;53.170;6.728;2023-05-23T06:32:42;12.98;;;4.05;;
54743;SDS011;40639;53.170;6.728;2023-05-23T06:35:08;9.25;;;3.78;;
54743;SDS011;40639;53.170;6.728;2023-05-23T06:37:34;13.95;;;3.70;;
54743;SDS011;40639;53.170;6.728;2023-05-23T06:40:04;11.50;;;3.20;;
54743;SDS011;40639;53.170;6.728;2023-05-23T06:42:30;11.77;;;3.92;;
54743;SDS011;40639;53.170;6.728;2023-05-23T06:44:56;8.65;;;3.20;;
54743;SDS011;40639;53.170;6.728;2023-05-23T06:47:22;10.48;;;3.28;;
54743;SDS011;40639;53.170;6.728;2023-05-23T06:49:48;14.57;;;3.65;;
54743;SDS011;40639;53.170;6.728;2023-05-23T06:52:14;13.00;;;3.47;;
54743;SDS011;40639;53.170;6.728;2023-05-23T06:54:40;11.98;;;3.17;;
54743;SDS011;40639;53.170;6.728;2023-05-23T06:57:06;10.80;;;3.58;;
54743;SDS011;40639;53.170;6.728;2023-05-23T06:59:32;12.57;;;3.25;;
54743;SDS011;40639;53.170;6.728;2023-05-23T07:01:58;12.27;;;3.72;;
54743;SDS011;40639;53.170;6.728;2023-05-23T07:04:25;19.05;;;3.92;;
54743;SDS011;40639;53.170;6.728;2023-05-23T07:06:51;11.95;;;3.70;;
54743;SDS011;40639;53.170;6.728;2023-05-23T07:09:18;12.35;;;3.80;;
54743;SDS011;40639;53.170;6.728;2023-05-23T07:11:44;14.68;;;4.47;;
54743;SDS011;40639;53.170;6.728;2023-05-23T07:14:10;11.52;;;3.88;;
54743;SDS011;40639;53.170;6.728;2023-05-23T07:16:36;12.85;;;3.90;;
54743;SDS011;40639;53.170;6.728;2023-05-23T07:19:02;19.15;;;4.70;;
54743;SDS011;40639;53.170;6.728;2023-05-23T07:21:29;17.73;;;4.10;;
54743;SDS011;40639;53.170;6.728;2023-05-23T07:23:55;11.32;;;3.80;;
54743;SDS011;40639;53.170;6.728;2023-05-23T07:26:22;17.45;;;4.03;;
54743;SDS011;40639;53.170;6.728;2023-05-23T07:28:48;14.98;;;3.20;;
54743;SDS011;40639;53.170;6.728;2023-05-23T07:31:15;15.15;;;4.32;;
54743;SDS011;40639;53.170;6.728;2023-05-23T07:33:41;16.17;;;3.35;;
54743;SDS011;40639;53.170;6.728;2023-05-23T07:36:07;12.65;;;3.47;;
54743;SDS011;40639;53.170;6.728;2023-05-23T07:38:33;12.57;;;3.95;;
54743;SDS011;40639;53.170;6.728;2023-05-23T07:40:59;7.25;;;2.90;;
54743;SDS011;40639;53.170;6.728;2023-05-23T07:43:26;14.13;;;3.35;;
54743;SDS011;40639;53.170;6.728;2023-05-23T07:45:52;9.63;;;2.90;;
54743;SDS011;40639;53.170;6.728;2023-05-23T07:48:18;15.60;;;3.33;;
54743;SDS011;40639;53.170;6.728;2023-05-23T07:50:44;9.23;;;2.90;;
54743;SDS011;40639;53.170;6.728;2023-05-23T07:53:10;9.55;;;2.90;;
54743;SDS011;40639;53.170;6.728;2023-05-23T07:55:36;11.85;;;2.92;;
54743;SDS011;40639;53.170;6.728;2023-05-23T07:58:03;15.70;;;3.88;;
54743;SDS011;40639;53.170;6.728;2023-05-23T08:00:29;11.65;;;3.00;;
54743;SDS011;40639;53.170;6.728;2023-05-23T08:02:55;13.23;;;3.58;;
54743;SDS011;40639;53.170;6.728;2023-05-23T08:05:21;17.83;;;3.60;;
54743;SDS011;40639;53.170;6.728;2023-05-23T08:07:48;13.25;;;4.47;;
54743;SDS011;40639;53.170;6.728;2023-05-23T08:10:14;12.38;;;3.22;;
54743;SDS011;40639;53.170;6.728;2023-05-23T08:12:40;14.75;;;3.28;;
54743;SDS011;40639;53.170;6.728;2023-05-23T08:15:06;15.70;;;3.85;;
54743;SDS011;40639;53.170;6.728;2023-05-23T08:17:33;11.68;;;2.78;;
54743;SDS011;40639;53.170;6.728;2023-05-23T08:19:59;10.70;;;3.13;;
54743;SDS011;40639;53.170;6.728;2023-05-23T08:22:26;14.68;;;3.10;;
54743;SDS011;40639;53.170;6.728;2023-05-23T08:24:52;11.25;;;3.28;;
54743;SDS011;40639;53.170;6.728;2023-05-23T08:27:18;12.27;;;3.92;;
54743;SDS011;40639;53.170;6.728;2023-05-23T08:29:44;15.48;;;3.13;;
54743;SDS011;40639;53.170;6.728;2023-05-23T08:32:10;14.23;;;3.35;;
54743;SDS011;40639;53.170;6.728;2023-05-23T08:34:36;11.00;;;3.58;;
54743;SDS011;40639;53.170;6.728;2023-05-23T08:37:02;12.43;;;3.25;;
54743;SDS011;40639;53.170;6.728;2023-05-23T08:39:28;13.40;;;3.42;;
54743;SDS011;40639;53.170;6.728;2023-05-23T08:41:54;13.02;;;3.40;;
54743;SDS011;40639;53.170;6.728;2023-05-23T08:44:20;13.82;;;3.05;;
54743;SDS011;40639;53.170;6.728;2023-05-23T08:46:46;15.63;;;4.15;;
54743;SDS011;40639;53.170;6.728;2023-05-23T08:49:15;10.75;;;3.40;;
54743;SDS011;40639;53.170;6.728;2023-05-23T08:51:42;16.92;;;3.38;;
54743;SDS011;40639;53.170;6.728;2023-05-23T08:54:09;12.48;;;2.95;;
54743;SDS011;40639;53.170;6.728;2023-05-23T08:56:39;14.35;;;4.07;;
54743;SDS011;40639;53.170;6.728;2023-05-23T08:59:06;17.80;;;3.67;;
54743;SDS011;40639;53.170;6.728;2023-05-23T09:01:33;13.15;;;3.60;;
54743;SDS011;40639;53.170;6.728;2023-05-23T09:04:00;12.93;;;3.00;;
54743;SDS011;40639;53.170;6.728;2023-05-23T09:06:29;10.82;;;2.90;;
54743;SDS011;40639;53.170;6.728;2023-05-23T09:08:56;12.60;;;3.92;;
54743;SDS011;40639;53.170;6.728;2023-05-23T09:11:22;14.65;;;3.13;;
54743;SDS011;40639;53.170;6.728;2023-05-23T09:13:49;8.88;;;3.35;;
54743;SDS011;40639;53.170;6.728;2023-05-23T09:16:16;9.38;;;3.08;;
54743;SDS011;40639;53.170;6.728;2023-05-23T09:18:45;10.32;;;3.47;;
54743;SDS011;40639;53.170;6.728;2023-05-23T09:21:12;12.48;;;3.08;;
54743;SDS011;40639;53.170;6.728;2023-05-23T09:23:38;10.95;;;3.50;;
54743;SDS011;40639;53.170;6.728;2023-05-23T09:26:09;13.20;;;2.92;;
54743;SDS011;40639;53.170;6.728;2023-05-23T09:28:37;14.02;;;3.35;;
54743;SDS011;40639;53.170;6.728;2023-05-23T09:31:05;11.30;;;3.30;;
54743;SDS011;40639;53.170;6.728;2023-05-23T09:33:47;9.93;;;2.80;;
54743;SDS011;40639;53.170;6.728;2023-05-23T09:36:13;11.75;;;2.92;;
54743;SDS011;40639;53.170;6.728;2023-05-23T09:38:40;9.30;;;2.80;;
54743;SDS011;40639;53.170;6.728;2023-05-23T09:41:06;13.52;;;2.45;;
54743;SDS011;40639;53.170;6.728;2023-05-23T09:43:33;15.55;;;3.33;;
54743;SDS011;40639;53.170;6.728;2023-05-23T09:46:00;9.88;;;2.63;;
54743;SDS011;40639;53.170;6.728;2023-05-23T09:48:29;9.73;;;2.67;;
54743;SDS011;40639;53.170;6.728;2023-05-23T09:50:56;11.75;;;2.83;;
54743;SDS011;40639;53.170;6.728;2023-05-23T09:53:23;17.15;;;3.70;;
54743;SDS011;40639;53.170;6.728;2023-05-23T09:55:49;12.05;;;3.08;;
54743;SDS011;40639;53.170;6.728;2023-05-23T09:58:18;10.52;;;3.22;;
54743;SDS011;40639;53.170;6.728;2023-05-23T10:00:45;9.95;;;2.63;;
54743;SDS011;40639;53.170;6.728;2023-05-23T10:03:12;12.32;;;3.10;;
54743;SDS011;40639;53.170;6.728;2023-05-23T10:05:48;11.27;;;2.67;;
54743;SDS011;40639;53.170;6.728;2023-05-23T10:13:19;14.82;;;2.83;;
54743;SDS011;40639;53.170;6.728;2023-05-23T10:15:47;9.60;;;2.70;;
54743;SDS011;40639;53.170;6.728;2023-05-23T10:18:15;16.02;;;3.10;;
54743;SDS011;40639;53.170;6.728;2023-05-23T10:20:44;13.05;;;2.92;;
54743;SDS011;40639;53.170;6.728;2023-05-23T10:23:12;15.27;;;3.53;;
54743;SDS011;40639;53.170;6.728;2023-05-23T10:25:38;8.43;;;2.70;;
54743;SDS011;40639;53.170;6.728;2023-05-23T10:28:06;7.43;;;2.25;;
54743;SDS011;40639;53.170;6.728;2023-05-23T10:30:32;18.63;;;3.53;;
54743;SDS011;40639;53.170;6.728;2023-05-23T10:32:59;10.93;;;2.65;;
54743;SDS011;40639;53.170;6.728;2023-05-23T10:35:35;12.50;;;2.58;;
54743;SDS011;40639;53.170;6.728;2023-05-23T10:43:28;11.60;;;2.60;;
54743;SDS011;40639;53.170;6.728;2023-05-23T10:45:55;11.32;;;3.20;;
54743;SDS011;40639;53.170;6.728;2023-05-23T10:51:01;11.95;;;3.53;;
54743;SDS011;40639;53.170;6.728;2023-05-23T10:53:37;9.93;;;3.13;;
54743;SDS011;40639;53.170;6.728;2023-05-23T10:56:10;10.52;;;2.92;;
54743;SDS011;40639;53.170;6.728;2023-05-23T10:58:39;14.65;;;3.10;;
54743;SDS011;40639;53.170;6.728;2023-05-23T11:01:06;11.73;;;2.45;;
54743;SDS011;40639;53.170;6.728;2023-05-23T11:09:05;8.15;;;3.00;;
54743;SDS011;40639;53.170;6.728;2023-05-23T11:14:16;8.38;;;2.40;;
54743;SDS011;40639;53.170;6.728;2023-05-23T11:16:43;9.73;;;3.00;;
54743;SDS011;40639;53.170;6.728;2023-05-23T11:21:43;10.35;;;2.50;;
54743;SDS011;40639;53.170;6.728;2023-05-23T11:24:09;12.13;;;3.28;;
54743;SDS011;40639;53.170;6.728;2023-05-23T11:26:35;9.90;;;2.70;;
54743;SDS011;40639;53.170;6.728;2023-05-23T11:29:01;11.35;;;2.58;;
54743;SDS011;40639;53.170;6.728;2023-05-23T11:31:28;12.27;;;2.80;;
54743;SDS011;40639;53.170;6.728;2023-05-23T11:33:54;6.80;;;2.45;;
54743;SDS011;40639;53.170;6.728;2023-05-23T11:36:21;10.20;;;2.70;;
54743;SDS011;40639;53.170;6.728;2023-05-23T11:38:51;7.00;;;2.40;;
54743;SDS011;40639;53.170;6.728;2023-05-23T11:41:20;9.63;;;2.25;;
54743;SDS011;40639;53.170;6.728;2023-05-23T11:43:52;5.72;;;1.75;;
54743;SDS011;40639;53.170;6.728;2023-05-23T11:46:19;9.02;;;2.53;;
54743;SDS011;40639;53.170;6.728;2023-05-23T11:48:54;10.43;;;2.50;;
54743;SDS011;40639;53.170;6.728;2023-05-23T11:51:20;8.93;;;2.35;;
54743;SDS011;40639;53.170;6.728;2023-05-23T11:53:47;8.68;;;2.50;;
54743;SDS011;40639;53.170;6.728;2023-05-23T11:56:13;13.50;;;3.05;;
54743;SDS011;40639;53.170;6.728;2023-05-23T11:58:40;13.18;;;3.47;;
54743;SDS011;40639;53.170;6.728;2023-05-23T12:01:07;12.68;;;3.13;;
54743;SDS011;40639;53.170;6.728;2023-05-23T12:03:34;10.35;;;2.80;;
54743;SDS011;40639;53.170;6.728;2023-05-23T12:06:09;9.07;;;2.58;;
54743;SDS011;40639;53.170;6.728;2023-05-23T12:08:36;8.43;;;2.78;;
54743;SDS011;40639;53.170;6.728;2023-05-23T12:11:02;10.48;;;2.95;;
54743;SDS011;40639;53.170;6.728;2023-05-23T12:13:28;9.13;;;2.50;;
54743;SDS011;40639;53.170;6.728;2023-05-23T12:15:55;9.38;;;2.25;;
54743;SDS011;40639;53.170;6.728;2023-05-23T12:18:21;8.18;;;2.50;;
54743;SDS011;40639;53.170;6.728;2023-05-23T12:20:48;10.73;;;2.60;;
54743;SDS011;40639;53.170;6.728;2023-05-23T12:23:22;11.05;;;2.47;;
54743;SDS011;40639;53.170;6.728;2023-05-23T12:25:49;10.23;;;2.70;;
54743;SDS011;40639;53.170;6.728;2023-05-23T12:28:15;9.48;;;2.58;;
54743;SDS011;40639;53.170;6.728;2023-05-23T12:30:42;7.63;;;2.38;;
54743;SDS011;40639;53.170;6.728;2023-05-23T12:33:08;6.88;;;2.22;;
54743;SDS011;40639;53.170;6.728;2023-05-23T12:35:35;8.88;;;2.35;;
54743;SDS011;40639;53.170;6.728;2023-05-23T12:38:02;11.05;;;2.67;;
54743;SDS011;40639;53.170;6.728;2023-05-23T12:40:34;9.90;;;2.67;;
54743;SDS011;40639;53.170;6.728;2023-05-23T12:43:00;12.23;;;2.90;;
54743;SDS011;40639;53.170;6.728;2023-05-23T12:45:30;14.90;;;3.50;;
54743;SDS011;40639;53.170;6.728;2023-05-23T12:47:57;10.00;;;2.83;;
54743;SDS011;40639;53.170;6.728;2023-05-23T12:50:24;11.07;;;3.60;;
54743;SDS011;40639;53.170;6.728;2023-05-23T12:52:50;9.40;;;2.55;;
54743;SDS011;40639;53.170;6.728;2023-05-23T12:55:16;8.75;;;2.28;;
54743;SDS011;40639;53.170;6.728;2023-05-23T12:57:43;7.45;;;2.15;;
54743;SDS011;40639;53.170;6.728;2023-05-23T13:00:09;9.10;;;2.42;;
54743;SDS011;40639;53.170;6.728;2023-05-23T13:02:35;9.45;;;2.25;;
54743;SDS011;40639;53.170;6.728;2023-05-23T13:05:03;9.63;;;2.22;;
54743;SDS011;40639;53.170;6.728;2023-05-23T13:07:29;8.60;;;2.35;;
54743;SDS011;40639;53.170;6.728;2023-05-23T13:09:55;10.25;;;2.70;;
54743;SDS011;40639;53.170;6.728;2023-05-23T13:12:21;9.77;;;2.20;;
54743;SDS011;40639;53.170;6.728;2023-05-23T13:14:48;9.30;;;1.85;;
54743;SDS011;40639;53.170;6.728;2023-05-23T13:17:15;10.63;;;2.65;;
54743;SDS011;40639;53.170;6.728;2023-05-23T13:19:41;8.23;;;2.47;;
54743;SDS011;40639;53.170;6.728;2023-05-23T13:22:07;9.35;;;2.58;;
54743;SDS011;40639;53.170;6.728;2023-05-23T13:24:37;10.13;;;2.40;;
54743;SDS011;40639;53.170;6.728;2023-05-23T13:27:07;7.95;;;1.83;;
54743;SDS011;40639;53.170;6.728;2023-05-23T13:29:33;8.10;;;2.22;;
54743;SDS011;40639;53.170;6.728;2023-05-23T13:31:59;9.52;;;2.30;;
54743;SDS011;40639;53.170;6.728;2023-05-23T13:34:26;10.30;;;2.53;;
54743;SDS011;40639;53.170;6.728;2023-05-23T13:36:52;10.30;;;2.70;;
54743;SDS011;40639;53.170;6.728;2023-05-23T13:39:19;9.48;;;2.55;;
54743;SDS011;40639;53.170;6.728;2023-05-23T13:41:47;13.60;;;2.65;;
54743;SDS011;40639;53.170;6.728;2023-05-23T13:44:13;8.32;;;2.67;;
54743;SDS011;40639;53.170;6.728;2023-05-23T13:46:39;9.02;;;2.33;;
54743;SDS011;40639;53.170;6.728;2023-05-23T13:49:05;9.85;;;2.40;;
54743;SDS011;40639;53.170;6.728;2023-05-23T13:51:31;12.15;;;2.58;;
54743;SDS011;40639;53.170;6.728;2023-05-23T13:53:58;12.57;;;2.90;;
54743;SDS011;40639;53.170;6.728;2023-05-23T13:56:24;9.50;;;2.13;;
54743;SDS011;40639;53.170;6.728;2023-05-23T13:58:50;7.82;;;1.98;;
54743;SDS011;40639;53.170;6.728;2023-05-23T14:01:16;9.10;;;2.20;;
54743;SDS011;40639;53.170;6.728;2023-05-23T14:03:42;10.07;;;2.58;;
54743;SDS011;40639;53.170;6.728;2023-05-23T14:06:08;6.15;;;2.63;;
54743;SDS011;40639;53.170;6.728;2023-05-23T14:08:34;8.57;;;2.20;;
54743;SDS011;40639;53.170;6.728;2023-05-23T14:11:01;9.13;;;2.50;;
54743;SDS011;40639;53.170;6.728;2023-05-23T14:13:27;9.20;;;2.40;;
54743;SDS011;40639;53.170;6.728;2023-05-23T14:15:53;4.32;;;1.83;;
54743;SDS011;40639;53.170;6.728;2023-05-23T14:18:19;5.60;;;2.10;;
54743;SDS011;40639;53.170;6.728;2023-05-23T14:20:45;9.85;;;2.10;;
54743;SDS011;40639;53.170;6.728;2023-05-23T14:23:11;8.95;;;2.55;;
54743;SDS011;40639;53.170;6.728;2023-05-23T14:25:38;9.43;;;2.50;;
54743;SDS011;40639;53.170;6.728;2023-05-23T14:28:04;8.77;;;2.45;;
54743;SDS011;40639;53.170;6.728;2023-05-23T14:30:30;9.63;;;2.28;;
54743;SDS011;40639;53.170;6.728;2023-05-23T14:32:56;10.75;;;2.63;;
54743;SDS011;40639;53.170;6.728;2023-05-23T14:35:22;7.70;;;2.47;;
54743;SDS011;40639;53.170;6.728;2023-05-23T14:37:50;9.02;;;2.28;;
54743;SDS011;40639;53.170;6.728;2023-05-23T14:40:16;10.05;;;2.33;;
54743;SDS011;40639;53.170;6.728;2023-05-23T14:42:42;9.43;;;2.20;;
54743;SDS011;40639;53.170;6.728;2023-05-23T14:45:09;9.23;;;2.22;;
54743;SDS011;40639;53.170;6.728;2023-05-23T14:47:35;10.27;;;2.15;;
54743;SDS011;40639;53.170;6.728;2023-05-23T14:50:01;8.25;;;2.33;;
54743;SDS011;40639;53.170;6.728;2023-05-23T14:52:28;10.75;;;2.67;;
54743;SDS011;40639;53.170;6.728;2023-05-23T14:54:54;7.20;;;2.15;;
54743;SDS011;40639;53.170;6.728;2023-05-23T14:57:20;12.93;;;2.30;;
54743;SDS011;40639;53.170;6.728;2023-05-23T14:59:46;8.52;;;2.05;;
54743;SDS011;40639;53.170;6.728;2023-05-23T15:02:12;10.50;;;2.10;;
54743;SDS011;40639;53.170;6.728;2023-05-23T15:04:38;8.27;;;2.10;;
54743;SDS011;40639;53.170;6.728;2023-05-23T15:07:05;7.05;;;1.70;;